createdAt,value
2018-05-03T00:02:29.090Z,12.83
2018-05-03T00:05:31.580Z,13.03
2018-05-03T00:08:34.083Z,12.90
2018-05-03T00:11:36.609Z,12.93
2018-05-03T00:14:39.288Z,13.03
2018-05-03T00:17:41.837Z,13.16
2018-05-03T00:20:44.349Z,12.93
2018-05-03T00:23:46.852Z,12.89
2018-05-03T00:26:49.330Z,13.03
2018-05-03T00:29:51.824Z,13.06
2018-05-03T00:32:54.334Z,12.98
2018-05-03T00:35:56.866Z,13.01
2018-05-03T00:38:59.413Z,13.11
2018-05-03T00:42:01.907Z,13.16
2018-05-03T00:45:04.411Z,12.96
2018-05-03T00:48:07.333Z,13.12
2018-05-03T00:51:09.829Z,13.14
2018-05-03T00:54:24.189Z,13.23
2018-05-03T00:57:26.682Z,13.15
2018-05-03T01:00:29.184Z,13.37
2018-05-03T01:03:31.674Z,13.27
2018-05-03T01:06:34.179Z,13.40
2018-05-03T01:09:36.660Z,13.30
2018-05-03T01:12:39.149Z,13.28
2018-05-03T01:15:41.698Z,12.95
2018-05-03T01:18:44.183Z,13.15
2018-05-03T01:21:46.670Z,13.10
2018-05-03T01:24:49.240Z,13.05
2018-05-03T01:27:51.721Z,13.03
2018-05-03T01:30:54.269Z,12.88
2018-05-03T01:33:56.735Z,13.00
2018-05-03T01:36:59.280Z,12.92
2018-05-03T01:40:01.772Z,13.06
2018-05-03T01:43:04.264Z,13.11
2018-05-03T01:46:06.767Z,13.12
2018-05-03T01:49:09.290Z,13.13
2018-05-03T01:52:11.787Z,13.07
2018-05-03T01:55:14.276Z,12.95
2018-05-03T01:58:16.778Z,12.85
2018-05-03T02:01:19.294Z,12.96
2018-05-03T02:04:21.793Z,12.96
2018-05-03T02:07:24.277Z,12.97
2018-05-03T02:10:26.760Z,12.93
2018-05-03T02:13:29.234Z,12.77
2018-05-03T02:16:31.781Z,12.98
2018-05-03T02:19:34.291Z,12.94
2018-05-03T02:22:36.786Z,12.86
2018-05-03T02:25:39.285Z,12.77
2018-05-03T02:28:41.779Z,12.79
2018-05-03T02:31:44.279Z,12.78
2018-05-03T02:34:46.762Z,12.83
2018-05-03T02:37:49.292Z,12.77
2018-05-03T02:40:51.812Z,12.78
2018-05-03T02:43:54.319Z,12.72
2018-05-03T02:46:56.861Z,12.70
2018-05-03T02:49:59.376Z,12.59
2018-05-03T02:53:01.930Z,12.38
2018-05-03T02:56:04.709Z,12.37
2018-05-03T02:59:19.106Z,12.47
2018-05-03T03:02:27.212Z,12.39
2018-05-03T03:05:47.223Z,12.40
2018-05-03T03:13:06.717Z,12.55
2018-05-03T03:16:26.560Z,12.37
2018-05-03T03:23:34.991Z,12.30
2018-05-03T03:30:43.199Z,12.37
2018-05-03T03:33:57.548Z,12.38
2018-05-03T03:41:20.791Z,12.27
2018-05-03T03:48:06.617Z,12.21
2018-05-03T03:51:09.181Z,12.27
2018-05-03T03:54:11.702Z,12.31
2018-05-03T03:57:14.235Z,12.26
2018-05-03T04:00:16.763Z,12.33
2018-05-03T04:03:19.364Z,12.11
2018-05-03T04:06:21.967Z,12.06
2018-05-03T04:09:24.505Z,12.22
2018-05-03T04:12:27.046Z,12.26
2018-05-03T04:15:29.532Z,12.36
2018-05-03T04:18:44.283Z,12.47
2018-05-03T04:25:34.396Z,12.55
2018-05-03T04:28:37.007Z,12.44
2018-05-03T04:31:39.567Z,12.49
2018-05-03T04:34:42.134Z,12.56
2018-05-03T04:37:44.654Z,12.70
2018-05-03T04:40:47.159Z,12.66
2018-05-03T04:43:49.736Z,12.66
2018-05-03T04:46:52.331Z,12.55
2018-05-03T04:49:54.779Z,12.39
2018-05-03T04:52:58.263Z,12.63
2018-05-03T04:56:00.753Z,12.49
2018-05-03T04:59:03.266Z,12.61
2018-05-03T05:02:05.800Z,12.66
2018-05-03T05:05:08.308Z,12.81
2018-05-03T05:08:10.804Z,12.88
2018-05-03T05:11:13.407Z,12.72
2018-05-03T05:14:15.935Z,12.87
2018-05-03T05:17:18.447Z,12.95
2018-05-03T05:20:20.953Z,13.02
2018-05-03T05:23:23.463Z,13.13
2018-05-03T05:26:25.992Z,13.19
2018-05-03T05:29:28.523Z,13.22
2018-05-03T05:32:31.079Z,13.22
2018-05-03T05:35:33.622Z,13.34
2018-05-03T05:38:36.182Z,13.28
2018-05-03T05:41:38.700Z,13.36
2018-05-03T05:44:41.274Z,13.39
2018-05-03T05:47:43.823Z,13.47
2018-05-03T05:50:46.513Z,13.41
2018-05-03T05:53:49.120Z,13.47
2018-05-03T05:56:51.652Z,13.56
2018-05-03T05:59:54.213Z,13.65
2018-05-03T06:02:56.765Z,13.70
2018-05-03T06:06:00.044Z,13.77
2018-05-03T06:09:02.585Z,13.76
2018-05-03T06:12:05.107Z,13.79
2018-05-03T06:15:07.687Z,13.90
2018-05-03T06:18:10.208Z,13.98
2018-05-03T06:21:12.699Z,14.08
2018-05-03T06:24:15.238Z,14.16
2018-05-03T06:27:18.636Z,14.12
2018-05-03T06:30:21.178Z,14.35
2018-05-03T06:33:23.733Z,14.32
2018-05-03T06:36:26.229Z,14.34
2018-05-03T06:39:30.071Z,14.41
2018-05-03T06:42:32.681Z,14.48
2018-05-03T06:45:35.201Z,14.57
2018-05-03T06:48:37.733Z,14.49
2018-05-03T06:51:40.238Z,14.59
2018-05-03T06:54:42.761Z,14.69
2018-05-03T06:57:45.313Z,14.61
2018-05-03T07:00:47.877Z,14.64
2018-05-03T07:03:50.427Z,14.69
2018-05-03T07:06:52.959Z,14.77
2018-05-03T07:09:55.542Z,14.95
2018-05-03T07:12:58.027Z,15.13
2018-05-03T07:16:00.540Z,15.34
2018-05-03T07:19:03.041Z,15.72
2018-05-03T07:22:05.562Z,15.62
2018-05-03T07:25:08.052Z,15.79
2018-05-03T07:28:10.528Z,16.00
2018-05-03T07:31:13.307Z,16.28
2018-05-03T07:34:15.802Z,16.31
2018-05-03T07:37:18.294Z,16.35
2018-05-03T07:40:20.805Z,16.20
2018-05-03T07:43:23.318Z,16.16
2018-05-03T07:46:25.812Z,15.76
2018-05-03T07:49:28.306Z,15.61
2018-05-03T07:52:30.820Z,15.59
2018-05-03T07:55:33.386Z,15.58
2018-05-03T07:58:35.887Z,15.77
2018-05-03T08:01:38.452Z,15.92
2018-05-03T08:04:40.991Z,15.95
2018-05-03T08:07:43.525Z,15.94
2018-05-03T08:10:46.026Z,16.02
2018-05-03T08:13:48.569Z,16.11
2018-05-03T08:16:51.100Z,16.44
2018-05-03T08:19:53.606Z,16.71
2018-05-03T08:22:56.129Z,17.08
2018-05-03T08:25:58.623Z,16.67
2018-05-03T08:29:01.130Z,17.01
2018-05-03T08:32:03.658Z,17.15
2018-05-03T08:35:06.140Z,17.00
2018-05-03T08:38:08.639Z,17.50
2018-05-03T08:41:11.166Z,16.95
2018-05-03T08:44:13.653Z,17.21
2018-05-03T08:47:16.191Z,17.27
2018-05-03T08:50:18.692Z,17.30
2018-05-03T08:53:21.202Z,17.46
2018-05-03T08:56:24.155Z,17.89
2018-05-03T08:59:26.760Z,18.06
2018-05-03T09:02:29.285Z,18.54
2018-05-03T09:05:31.790Z,18.78
2018-05-03T09:08:34.319Z,18.95
2018-05-03T09:11:37.004Z,19.26
2018-05-03T09:14:39.546Z,19.10
2018-05-03T09:17:42.067Z,19.05
2018-05-03T09:20:44.538Z,19.03
2018-05-03T09:23:47.806Z,19.71
2018-05-03T09:26:50.365Z,19.83
2018-05-03T09:29:52.854Z,20.10
2018-05-03T09:32:55.356Z,19.65
2018-05-03T09:35:57.852Z,19.15
2018-05-03T09:39:00.345Z,19.69
2018-05-03T09:42:02.854Z,20.12
2018-05-03T09:45:05.379Z,20.61
2018-05-03T09:48:08.844Z,20.53
2018-05-03T09:51:11.317Z,20.44
2018-05-03T09:54:13.837Z,21.16
2018-05-03T09:57:16.368Z,21.19
2018-05-03T10:00:18.873Z,21.17
2018-05-03T10:03:21.398Z,21.02
2018-05-03T10:06:23.912Z,21.12
2018-05-03T10:09:26.379Z,22.08
2018-05-03T10:12:28.894Z,21.53
2018-05-03T10:15:31.397Z,21.73
2018-05-03T10:18:33.911Z,21.57
2018-05-03T10:21:36.461Z,21.50
2018-05-03T10:24:39.059Z,21.47
2018-05-03T10:27:41.646Z,20.92
2018-05-03T10:30:44.131Z,20.47
2018-05-03T10:33:46.680Z,21.51
2018-05-03T10:36:49.174Z,21.38
2018-05-03T10:39:51.677Z,21.38
2018-05-03T10:42:54.242Z,22.05
2018-05-03T10:45:56.748Z,22.53
2018-05-03T10:48:59.244Z,22.77
2018-05-03T10:52:01.752Z,22.90
2018-05-03T10:55:04.268Z,23.18
2018-05-03T10:58:07.802Z,22.59
2018-05-03T11:01:10.323Z,22.59
2018-05-03T11:04:12.817Z,22.46
2018-05-03T11:07:15.326Z,22.68
2018-05-03T11:13:26.506Z,22.38
2018-05-03T11:16:29.018Z,21.68
2018-05-03T11:19:31.536Z,22.14
2018-05-03T11:22:34.043Z,22.75
2018-05-03T11:25:36.545Z,23.22
2018-05-03T11:28:39.072Z,22.42
2018-05-03T11:31:41.567Z,23.13
2018-05-03T11:34:44.071Z,22.57
2018-05-03T11:37:46.627Z,22.43
2018-05-03T11:40:49.202Z,22.86
2018-05-03T11:43:51.728Z,23.20
2018-05-03T11:46:54.256Z,23.28
2018-05-03T11:49:56.783Z,24.40
2018-05-03T11:52:59.279Z,24.14
2018-05-03T11:56:01.785Z,24.31
2018-05-03T11:59:04.385Z,23.04
2018-05-03T12:02:06.869Z,24.10
2018-05-03T12:05:09.455Z,23.87
2018-05-03T12:08:11.977Z,23.35
2018-05-03T12:11:14.489Z,22.93
2018-05-03T12:14:17.048Z,23.50
2018-05-03T12:17:19.567Z,23.52
2018-05-03T12:20:22.108Z,22.90
2018-05-03T12:23:24.648Z,23.84
2018-05-03T12:26:27.191Z,23.27
2018-05-03T12:29:29.698Z,23.99
2018-05-03T12:32:32.228Z,23.21
2018-05-03T12:35:34.751Z,23.45
2018-05-03T12:38:37.264Z,22.65
2018-05-03T12:41:39.795Z,22.73
2018-05-03T12:44:42.428Z,22.25
2018-05-03T12:47:44.932Z,22.36
2018-05-03T12:50:47.447Z,22.95
2018-05-03T12:53:49.961Z,22.95
2018-05-03T12:56:52.485Z,23.73
2018-05-03T12:59:54.999Z,23.40
2018-05-03T13:02:57.565Z,24.07
2018-05-03T13:06:00.048Z,23.89
2018-05-03T13:09:02.538Z,23.75
2018-05-03T13:12:05.055Z,23.88
2018-05-03T13:15:07.557Z,23.56
2018-05-03T13:18:10.054Z,24.15
2018-05-03T13:21:12.575Z,24.48
2018-05-03T13:24:15.050Z,23.82
2018-05-03T13:27:17.597Z,24.09
2018-05-03T13:30:20.135Z,24.13
2018-05-03T13:33:22.654Z,23.89
2018-05-03T13:36:25.164Z,24.51
2018-05-03T13:39:27.678Z,23.93
2018-05-03T13:42:30.174Z,23.68
2018-05-03T13:45:32.697Z,23.90
2018-05-03T13:48:35.239Z,24.32
2018-05-03T13:51:37.750Z,24.20
2018-05-03T13:54:40.242Z,24.33
2018-05-03T13:57:42.900Z,24.08
2018-05-03T14:00:45.471Z,23.91
2018-05-03T14:03:48.112Z,23.70
2018-05-03T14:06:50.654Z,24.48
2018-05-03T14:09:53.151Z,23.74
2018-05-03T14:12:55.650Z,22.83
2018-05-03T14:15:58.169Z,23.39
2018-05-03T14:19:00.740Z,24.27
2018-05-03T14:22:03.217Z,23.74
2018-05-03T14:25:05.790Z,23.61
2018-05-03T14:28:08.320Z,24.10
2018-05-03T14:31:10.894Z,24.17
2018-05-03T14:34:13.446Z,23.43
2018-05-03T14:37:15.997Z,23.93
2018-05-03T14:40:18.533Z,24.02
2018-05-03T14:43:21.076Z,22.70
2018-05-03T14:46:23.631Z,23.64
2018-05-03T14:49:26.154Z,23.42
2018-05-03T14:52:28.701Z,24.00
2018-05-03T14:55:31.258Z,23.20
2018-05-03T14:58:34.992Z,23.16
2018-05-03T15:01:37.556Z,23.25
2018-05-03T15:04:40.089Z,23.34
2018-05-03T15:07:42.643Z,23.33
2018-05-03T15:10:45.181Z,23.66
2018-05-03T15:13:47.705Z,23.66
2018-05-03T15:16:50.361Z,23.61
2018-05-03T15:19:52.921Z,23.34
2018-05-03T15:22:55.471Z,22.81
2018-05-03T15:25:57.996Z,22.77
2018-05-03T15:29:00.686Z,23.09
2018-05-03T15:32:04.438Z,22.67
2018-05-03T15:35:07.010Z,21.94
2018-05-03T15:38:10.655Z,22.20
2018-05-03T15:41:14.573Z,22.48
2018-05-03T15:44:17.144Z,21.80
2018-05-03T15:47:19.700Z,21.77
2018-05-03T15:50:22.295Z,21.23
2018-05-03T15:53:24.801Z,21.10
2018-05-03T15:56:27.438Z,21.53
2018-05-03T15:59:30.254Z,21.11
2018-05-03T16:02:32.795Z,20.19
2018-05-03T16:05:35.369Z,20.86
2018-05-03T16:08:37.994Z,20.62
2018-05-03T16:11:40.717Z,20.52
2018-05-03T16:14:43.305Z,20.60
2018-05-03T16:17:45.909Z,20.52
2018-05-03T16:20:48.426Z,20.34
2018-05-03T16:23:51.659Z,20.27
2018-05-03T16:26:54.256Z,20.55
2018-05-03T16:29:56.920Z,20.01
2018-05-03T16:32:59.601Z,20.09
2018-05-03T16:36:02.154Z,19.71
2018-05-03T16:39:04.750Z,19.92
2018-05-03T16:42:07.399Z,19.57
2018-05-03T16:45:09.970Z,19.66
2018-05-03T16:48:12.552Z,19.41
2018-05-03T16:51:15.066Z,19.71
2018-05-03T16:54:17.624Z,19.30
2018-05-03T16:57:20.255Z,18.97
2018-05-03T17:00:22.874Z,18.72
2018-05-03T17:03:26.416Z,19.04
2018-05-03T17:06:28.948Z,19.01
2018-05-03T17:09:31.508Z,18.69
2018-05-03T17:12:34.593Z,18.76
2018-05-03T17:15:37.128Z,18.98
2018-05-03T17:18:42.717Z,18.77
2018-05-03T17:21:46.706Z,18.68
2018-05-03T17:24:49.313Z,18.86
2018-05-03T17:27:52.003Z,18.25
2018-05-03T17:30:54.483Z,18.41
2018-05-03T17:33:57.080Z,18.63
2018-05-03T17:36:59.720Z,18.13
2018-05-03T17:40:03.447Z,18.37
2018-05-03T17:43:06.482Z,18.11
2018-05-03T17:46:09.636Z,17.87
2018-05-03T17:49:16.115Z,17.80
2018-05-03T17:52:29.188Z,17.95
2018-05-03T17:55:32.132Z,17.79
2018-05-03T18:02:05.461Z,17.94
2018-05-03T18:05:11.807Z,17.69
2018-05-03T18:08:14.581Z,17.39
2018-05-03T18:11:19.890Z,17.29
2018-05-03T18:14:23.709Z,17.45
2018-05-03T18:17:27.166Z,17.36
2018-05-03T18:20:29.895Z,17.29
2018-05-03T18:23:32.564Z,16.97
2018-05-03T18:26:35.508Z,17.03
2018-05-03T18:29:38.851Z,16.94
2018-05-03T18:32:41.681Z,16.74
2018-05-03T18:35:48.501Z,16.58
2018-05-03T18:38:51.349Z,16.71
2018-05-03T18:41:54.138Z,16.63
2018-05-03T18:44:56.979Z,16.76
2018-05-03T18:47:59.595Z,16.44
2018-05-03T18:51:03.176Z,16.35
2018-05-03T18:54:05.838Z,16.31
2018-05-03T18:57:08.967Z,16.30
2018-05-03T19:00:11.847Z,16.23
2018-05-03T19:03:16.771Z,15.85
2018-05-03T19:06:19.599Z,16.05
2018-05-03T19:09:22.415Z,16.01
2018-05-03T19:12:25.779Z,15.56
2018-05-03T19:15:28.447Z,15.85
2018-05-03T19:18:31.738Z,15.78
2018-05-03T19:21:35.217Z,15.50
2018-05-03T19:24:38.290Z,15.46
2018-05-03T19:27:41.723Z,15.52
2018-05-03T19:30:45.206Z,15.52
2018-05-03T19:33:47.884Z,15.17
2018-05-03T19:36:51.331Z,14.98
2018-05-03T19:39:54.608Z,15.32
2018-05-03T19:42:57.764Z,15.23
2018-05-03T19:46:01.733Z,15.15
2018-05-03T19:49:05.292Z,15.01
2018-05-03T19:52:08.656Z,14.69
2018-05-03T19:55:12.089Z,15.00
2018-05-03T19:58:16.182Z,14.88
2018-05-03T20:01:19.724Z,14.51
2018-05-03T20:04:22.491Z,14.45
2018-05-03T20:07:25.796Z,14.76
2018-05-03T20:10:28.528Z,14.72
2018-05-03T20:13:31.288Z,14.80
2018-05-03T20:16:53.854Z,14.34
2018-05-03T20:19:57.042Z,14.56
2018-05-03T20:22:59.771Z,14.70
2018-05-03T20:26:03.063Z,14.39
2018-05-03T20:29:06.495Z,14.20
2018-05-03T20:32:09.780Z,14.27
2018-05-03T20:35:13.936Z,13.84
2018-05-03T20:38:17.324Z,14.13
2018-05-03T20:41:19.960Z,14.18
2018-05-03T20:44:24.041Z,13.98
2018-05-03T20:47:26.766Z,14.07
2018-05-03T20:50:34.006Z,14.17
2018-05-03T20:53:36.982Z,14.02
2018-05-03T20:56:39.730Z,13.94
2018-05-03T20:59:42.710Z,14.01
2018-05-03T21:02:45.753Z,14.00
2018-05-03T21:05:48.628Z,13.88
2018-05-03T21:08:51.494Z,13.89
2018-05-03T21:11:54.193Z,13.72
2018-05-03T21:14:56.838Z,13.65
2018-05-03T21:17:59.412Z,13.83
2018-05-03T21:21:02.128Z,13.81
2018-05-03T21:24:05.715Z,13.61
2018-05-03T21:27:08.953Z,13.56
2018-05-03T21:30:12.448Z,13.62
2018-05-03T21:33:15.107Z,13.53
2018-05-03T21:36:17.733Z,13.28
2018-05-03T21:39:21.740Z,13.44
2018-05-03T21:42:24.476Z,13.01
2018-05-03T21:45:28.036Z,13.04
2018-05-03T21:48:30.729Z,13.13
2018-05-03T21:51:34.743Z,12.87
2018-05-03T21:54:38.148Z,12.73
2018-05-03T21:57:42.605Z,12.60
2018-05-03T22:00:45.147Z,12.52
2018-05-03T22:03:47.838Z,12.33
2018-05-03T22:06:51.125Z,12.46
2018-05-03T22:09:55.216Z,12.37
2018-05-03T22:13:02.119Z,12.55
2018-05-03T22:16:06.039Z,12.09
2018-05-03T22:19:10.032Z,12.56
2018-05-03T22:22:13.783Z,12.23
2018-05-03T22:25:17.049Z,12.29
2018-05-03T22:28:19.672Z,12.23
2018-05-03T22:31:24.695Z,12.16
2018-05-03T22:34:27.313Z,12.15
2018-05-03T22:37:30.941Z,12.32
2018-05-03T22:40:34.381Z,12.06
2018-05-03T22:43:40.703Z,11.97
2018-05-03T22:46:48.513Z,11.87
2018-05-03T22:49:54.107Z,11.69
2018-05-03T22:52:57.322Z,11.74
2018-05-03T22:56:03.802Z,11.78
2018-05-03T22:59:16.008Z,11.86
2018-05-03T23:02:24.240Z,11.75
2018-05-03T23:05:35.347Z,11.64
2018-05-03T23:08:39.545Z,11.70
2018-05-03T23:11:43.727Z,11.56
2018-05-03T23:21:45.721Z,11.37
2018-05-03T23:24:53.673Z,11.42
2018-05-03T23:27:57.839Z,11.13
2018-05-03T23:31:00.832Z,11.20
2018-05-03T23:34:06.415Z,11.21
2018-05-03T23:37:09.656Z,11.33
2018-05-03T23:40:17.034Z,11.16
2018-05-03T23:43:19.644Z,11.01
2018-05-03T23:46:23.357Z,11.00
2018-05-03T23:49:38.268Z,10.95
2018-05-03T23:52:41.746Z,11.09
2018-05-03T23:55:48.896Z,10.91
2018-05-03T23:58:56.547Z,10.98
